createdAt,value
2017-05-14T00:00:37.454Z,0
2017-05-14T00:01:17.982Z,0
2017-05-14T00:02:00.180Z,0
2017-05-14T00:02:40.684Z,0
2017-05-14T00:03:21.145Z,0
2017-05-14T00:04:01.621Z,0
2017-05-14T00:04:42.170Z,0
2017-05-14T00:05:22.649Z,0
2017-05-14T00:06:03.092Z,0
2017-05-14T00:06:43.563Z,0
2017-05-14T00:07:24.107Z,0
2017-05-14T00:08:04.598Z,0
2017-05-14T00:08:45.091Z,0
2017-05-14T00:09:25.571Z,0
2017-05-14T00:10:06.043Z,0
2017-05-14T00:10:46.530Z,0
2017-05-14T00:11:27.014Z,0
2017-05-14T00:12:07.519Z,0
2017-05-14T00:12:47.981Z,0
2017-05-14T00:13:28.452Z,0
2017-05-14T00:14:08.918Z,0
2017-05-14T00:14:49.374Z,0
2017-05-14T00:15:29.868Z,0
2017-05-14T00:16:10.337Z,0
2017-05-14T00:16:50.853Z,0
2017-05-14T00:17:31.388Z,0
2017-05-14T00:18:11.879Z,0
2017-05-14T00:18:52.320Z,0
2017-05-14T00:19:32.840Z,0
2017-05-14T00:20:13.399Z,0
2017-05-14T00:20:53.855Z,0
2017-05-14T00:21:34.331Z,0
2017-05-14T00:22:14.841Z,0
2017-05-14T00:22:55.294Z,0
2017-05-14T00:23:35.817Z,0
2017-05-14T00:24:16.319Z,0
2017-05-14T00:24:56.980Z,0
2017-05-14T00:25:37.479Z,0
2017-05-14T00:26:17.975Z,0
2017-05-14T00:26:58.483Z,0
2017-05-14T00:27:38.949Z,0
2017-05-14T00:28:19.426Z,0
2017-05-14T00:28:59.896Z,0
2017-05-14T00:29:40.389Z,0
2017-05-14T00:30:20.913Z,0
2017-05-14T00:31:01.324Z,0
2017-05-14T00:31:41.819Z,0
2017-05-14T00:32:22.319Z,0
2017-05-14T00:33:02.838Z,0
2017-05-14T00:33:43.295Z,0
2017-05-14T00:34:23.830Z,0
2017-05-14T00:35:04.274Z,0
2017-05-14T00:35:44.800Z,0
2017-05-14T00:36:25.259Z,0
2017-05-14T00:37:05.817Z,0
2017-05-14T00:37:46.227Z,0
2017-05-14T00:38:26.776Z,0
2017-05-14T00:39:07.310Z,0
2017-05-14T00:39:47.725Z,0
2017-05-14T00:40:28.195Z,0
2017-05-14T00:41:08.711Z,0
2017-05-14T00:41:49.178Z,0
2017-05-14T00:42:29.690Z,0
2017-05-14T00:43:10.199Z,0
2017-05-14T00:43:50.659Z,0
2017-05-14T00:44:31.097Z,0
2017-05-14T00:45:11.634Z,0
2017-05-14T00:45:52.090Z,0
2017-05-14T00:46:32.540Z,0
2017-05-14T00:47:13.075Z,0
2017-05-14T00:47:53.517Z,0
2017-05-14T00:48:34.007Z,0
2017-05-14T00:49:14.461Z,0
2017-05-14T00:49:54.956Z,0
2017-05-14T00:50:35.470Z,0
2017-05-14T00:51:15.901Z,0
2017-05-14T00:51:56.394Z,0
2017-05-14T00:52:36.870Z,0
2017-05-14T00:53:17.333Z,0
2017-05-14T00:53:57.853Z,0
2017-05-14T00:54:38.352Z,0
2017-05-14T00:55:18.813Z,0
2017-05-14T00:55:59.300Z,0
2017-05-14T00:56:39.815Z,0
2017-05-14T00:57:20.307Z,0
2017-05-14T00:58:00.752Z,0
2017-05-14T00:58:41.314Z,0
2017-05-14T00:59:21.768Z,0
2017-05-14T01:00:02.234Z,0
2017-05-14T01:00:42.745Z,0
2017-05-14T01:01:23.367Z,0
2017-05-14T01:02:03.800Z,0
2017-05-14T01:02:44.309Z,0
2017-05-14T01:03:24.769Z,0
2017-05-14T01:04:05.241Z,0
2017-05-14T01:04:45.750Z,0
2017-05-14T01:05:26.271Z,0
2017-05-14T01:06:06.748Z,0
2017-05-14T01:06:47.213Z,0
2017-05-14T01:07:27.711Z,0
2017-05-14T01:08:08.185Z,0
2017-05-14T01:08:48.664Z,0
2017-05-14T01:09:29.125Z,0
2017-05-14T01:10:09.620Z,0
2017-05-14T01:10:50.079Z,0
2017-05-14T01:11:30.546Z,0
2017-05-14T01:12:11.011Z,0
2017-05-14T01:12:51.526Z,0
2017-05-14T01:13:31.997Z,0
2017-05-14T01:14:12.475Z,0
2017-05-14T01:14:53.004Z,0
2017-05-14T01:15:33.456Z,0
2017-05-14T01:16:13.952Z,0
2017-05-14T01:16:54.403Z,0
2017-05-14T01:17:34.874Z,0
2017-05-14T01:18:15.366Z,0
2017-05-14T01:18:55.841Z,0
2017-05-14T01:19:36.314Z,0
2017-05-14T01:20:16.789Z,0
2017-05-14T01:20:57.287Z,0
2017-05-14T01:21:37.753Z,0
2017-05-14T01:22:18.227Z,0
2017-05-14T01:22:58.673Z,0
2017-05-14T01:23:39.179Z,0
2017-05-14T01:24:19.638Z,0
2017-05-14T01:25:00.130Z,0
2017-05-14T01:25:40.594Z,0
2017-05-14T01:26:21.109Z,0
2017-05-14T01:27:01.558Z,0
2017-05-14T01:27:42.032Z,0
2017-05-14T01:28:22.522Z,0
2017-05-14T01:29:03.064Z,0
2017-05-14T01:29:43.496Z,0
2017-05-14T01:30:23.975Z,0
2017-05-14T01:31:04.441Z,0
2017-05-14T01:31:44.929Z,0
2017-05-14T01:32:25.403Z,0
2017-05-14T01:33:05.956Z,0
2017-05-14T01:33:46.471Z,0
2017-05-14T01:34:26.909Z,0
2017-05-14T01:35:07.382Z,0
2017-05-14T01:35:47.886Z,0
2017-05-14T01:36:28.320Z,0
2017-05-14T01:37:08.799Z,0
2017-05-14T01:37:49.266Z,0
2017-05-14T01:38:29.741Z,0
2017-05-14T01:39:10.264Z,0
2017-05-14T01:39:50.778Z,0
2017-05-14T01:40:31.218Z,0
2017-05-14T01:41:11.713Z,0
2017-05-14T01:41:52.217Z,0
2017-05-14T01:42:32.663Z,0
2017-05-14T01:43:13.157Z,0
2017-05-14T01:43:53.609Z,0
2017-05-14T01:44:34.073Z,0
2017-05-14T01:45:14.574Z,0
2017-05-14T01:45:55.050Z,0
2017-05-14T01:46:35.522Z,0
2017-05-14T01:47:15.972Z,0
2017-05-14T01:47:56.455Z,0
2017-05-14T01:48:36.930Z,0
2017-05-14T01:49:17.461Z,0
2017-05-14T01:49:57.959Z,0
2017-05-14T01:50:38.442Z,0
2017-05-14T01:51:18.903Z,0
2017-05-14T01:51:59.409Z,0
2017-05-14T01:52:39.843Z,0
2017-05-14T01:53:20.351Z,0
2017-05-14T01:54:00.839Z,0
2017-05-14T01:54:41.379Z,0
2017-05-14T01:55:21.834Z,0
2017-05-14T01:56:02.339Z,0
2017-05-14T01:56:42.815Z,0
2017-05-14T01:57:23.305Z,0
2017-05-14T01:58:03.823Z,0
2017-05-14T01:58:44.290Z,0
2017-05-14T01:59:24.764Z,0
2017-05-14T02:00:05.210Z,0
2017-05-14T02:00:45.723Z,0
2017-05-14T02:01:26.260Z,0
2017-05-14T02:02:06.692Z,0
2017-05-14T02:02:47.189Z,0
2017-05-14T02:03:27.650Z,0
2017-05-14T02:04:08.181Z,0
2017-05-14T02:04:48.677Z,0
2017-05-14T02:05:29.147Z,0
2017-05-14T02:06:09.623Z,0
2017-05-14T02:06:50.099Z,0
2017-05-14T02:07:30.641Z,0
2017-05-14T02:08:11.074Z,0
2017-05-14T02:08:51.587Z,0
2017-05-14T02:09:32.060Z,0
2017-05-14T02:10:12.573Z,0
2017-05-14T02:10:53.049Z,0
2017-05-14T02:11:33.510Z,0
2017-05-14T02:12:13.959Z,0
2017-05-14T02:12:54.461Z,0
2017-05-14T02:13:34.961Z,0
2017-05-14T02:14:15.464Z,0
2017-05-14T02:14:55.954Z,0
2017-05-14T02:15:36.454Z,0
2017-05-14T02:16:16.881Z,0
2017-05-14T02:16:57.355Z,0
2017-05-14T02:17:37.833Z,0
2017-05-14T02:18:18.334Z,0
2017-05-14T02:18:58.820Z,0
2017-05-14T02:19:39.273Z,0
2017-05-14T02:20:19.768Z,0
2017-05-14T02:21:00.241Z,0
2017-05-14T02:21:40.749Z,0
2017-05-14T02:22:21.242Z,0
2017-05-14T02:23:01.717Z,0
2017-05-14T02:23:42.207Z,0
2017-05-14T02:24:22.701Z,0
2017-05-14T02:25:03.165Z,0
2017-05-14T02:25:43.644Z,0
2017-05-14T02:26:24.137Z,0
2017-05-14T02:27:04.638Z,0
2017-05-14T02:27:45.099Z,0
2017-05-14T02:28:25.585Z,0
2017-05-14T02:29:06.059Z,0
2017-05-14T02:29:46.555Z,0
2017-05-14T02:30:27.022Z,0
2017-05-14T02:31:07.634Z,0
2017-05-14T02:31:48.113Z,0
2017-05-14T02:32:28.595Z,0
2017-05-14T02:33:09.090Z,0
2017-05-14T02:33:49.569Z,0
2017-05-14T02:34:30.094Z,0
2017-05-14T02:35:10.606Z,0
2017-05-14T02:35:51.088Z,0
2017-05-14T02:36:31.559Z,0
2017-05-14T02:37:12.019Z,0
2017-05-14T02:37:52.548Z,0
2017-05-14T02:38:33.015Z,0
2017-05-14T02:39:13.510Z,0
2017-05-14T02:39:54.024Z,0
2017-05-14T02:40:34.465Z,0
2017-05-14T02:41:14.948Z,0
2017-05-14T02:41:55.442Z,0
2017-05-14T02:42:35.872Z,0
2017-05-14T02:43:16.339Z,0
2017-05-14T02:43:56.812Z,4
2017-05-14T02:44:37.283Z,4
2017-05-14T02:45:17.753Z,4
2017-05-14T02:45:58.262Z,4
2017-05-14T02:46:38.724Z,4
2017-05-14T02:47:19.234Z,4
2017-05-14T02:47:59.663Z,4
2017-05-14T02:48:40.145Z,0
2017-05-14T02:49:20.623Z,0
2017-05-14T02:50:01.125Z,4
2017-05-14T02:50:41.580Z,4
2017-05-14T02:51:22.108Z,4
2017-05-14T02:52:04.283Z,4
2017-05-14T02:52:44.732Z,8
2017-05-14T02:53:25.217Z,4
2017-05-14T02:54:05.691Z,4
2017-05-14T02:54:46.178Z,4
2017-05-14T02:55:26.657Z,8
2017-05-14T02:56:07.134Z,8
2017-05-14T02:56:47.606Z,8
2017-05-14T02:57:28.079Z,8
2017-05-14T02:58:08.587Z,8
2017-05-14T02:58:49.059Z,12
2017-05-14T02:59:29.536Z,8
2017-05-14T03:00:10.034Z,12
2017-05-14T03:00:50.516Z,12
2017-05-14T03:01:31.039Z,12
2017-05-14T03:02:11.564Z,12
2017-05-14T03:02:52.006Z,16
2017-05-14T03:03:32.623Z,16
2017-05-14T03:04:13.076Z,16
2017-05-14T03:04:53.590Z,16
2017-05-14T03:05:34.055Z,16
2017-05-14T03:06:14.547Z,20
2017-05-14T03:06:55.033Z,20
2017-05-14T03:07:35.548Z,20
2017-05-14T03:08:16.010Z,24
2017-05-14T03:08:56.450Z,20
2017-05-14T03:09:36.930Z,24
2017-05-14T03:10:17.387Z,24
2017-05-14T03:10:57.859Z,28
2017-05-14T03:11:38.317Z,28
2017-05-14T03:12:18.807Z,32
2017-05-14T03:12:59.276Z,32
2017-05-14T03:13:39.781Z,36
2017-05-14T03:14:20.219Z,36
2017-05-14T03:15:00.706Z,40
2017-05-14T03:15:41.216Z,44
2017-05-14T03:16:21.669Z,48
2017-05-14T03:17:02.388Z,48
2017-05-14T03:17:42.838Z,52
2017-05-14T03:18:23.332Z,60
2017-05-14T03:19:03.778Z,64
2017-05-14T03:19:44.255Z,64
2017-05-14T03:20:24.726Z,68
2017-05-14T03:21:05.226Z,68
2017-05-14T03:21:45.719Z,72
2017-05-14T03:22:26.168Z,72
2017-05-14T03:23:06.714Z,72
2017-05-14T03:23:47.170Z,80
2017-05-14T03:24:27.632Z,84
2017-05-14T03:25:08.131Z,92
2017-05-14T03:25:48.601Z,96
2017-05-14T03:26:29.072Z,100
2017-05-14T03:27:09.529Z,108
2017-05-14T03:27:50.058Z,112
2017-05-14T03:28:30.512Z,124
2017-05-14T03:29:11.004Z,136
2017-05-14T03:29:51.515Z,148
2017-05-14T03:30:31.979Z,160
2017-05-14T03:31:12.464Z,164
2017-05-14T03:31:52.936Z,172
2017-05-14T03:32:33.406Z,176
2017-05-14T03:33:13.873Z,184
2017-05-14T03:33:54.380Z,200
2017-05-14T03:34:34.867Z,212
2017-05-14T03:35:15.365Z,228
2017-05-14T03:35:55.833Z,240
2017-05-14T03:36:36.330Z,248
2017-05-14T03:37:16.791Z,264
2017-05-14T03:37:57.274Z,284
2017-05-14T03:38:37.745Z,304
2017-05-14T03:39:18.213Z,320
2017-05-14T03:39:58.679Z,344
2017-05-14T03:40:39.137Z,352
2017-05-14T03:41:19.609Z,360
2017-05-14T03:42:00.143Z,372
2017-05-14T03:42:40.587Z,380
2017-05-14T03:43:21.102Z,400
2017-05-14T03:44:01.606Z,428
2017-05-14T03:44:42.076Z,444
2017-05-14T03:45:22.541Z,432
2017-05-14T03:46:03.015Z,428
2017-05-14T03:46:43.485Z,412
2017-05-14T03:47:23.979Z,404
2017-05-14T03:48:04.443Z,388
2017-05-14T03:48:44.877Z,384
2017-05-14T03:49:25.363Z,376
2017-05-14T03:50:05.911Z,376
2017-05-14T03:50:46.315Z,352
2017-05-14T03:51:26.808Z,380
2017-05-14T03:52:07.301Z,432
2017-05-14T03:52:47.752Z,460
2017-05-14T03:53:28.204Z,456
2017-05-14T03:54:08.677Z,448
2017-05-14T03:54:49.186Z,428
2017-05-14T03:55:29.655Z,424
2017-05-14T03:56:10.117Z,452
2017-05-14T03:56:50.590Z,488
2017-05-14T03:57:31.091Z,516
2017-05-14T03:58:11.519Z,548
2017-05-14T03:58:52.040Z,560
2017-05-14T03:59:32.549Z,592
2017-05-14T04:00:13.070Z,624
2017-05-14T04:00:53.519Z,636
2017-05-14T04:01:33.989Z,632
2017-05-14T04:02:14.464Z,632
2017-05-14T04:02:54.979Z,628
2017-05-14T04:03:35.456Z,608
2017-05-14T04:04:15.918Z,560
2017-05-14T04:04:56.390Z,516
2017-05-14T04:05:36.875Z,484
2017-05-14T04:06:17.355Z,476
2017-05-14T04:06:57.863Z,492
2017-05-14T04:07:38.327Z,508
2017-05-14T04:08:18.821Z,528
2017-05-14T04:08:59.277Z,552
2017-05-14T04:09:39.774Z,580
2017-05-14T04:10:20.270Z,628
2017-05-14T04:11:00.788Z,676
2017-05-14T04:11:41.220Z,720
2017-05-14T04:12:21.700Z,760
2017-05-14T04:13:02.381Z,796
2017-05-14T04:13:42.842Z,812
2017-05-14T04:14:23.319Z,828
2017-05-14T04:15:03.820Z,848
2017-05-14T04:15:44.294Z,868
2017-05-14T04:16:24.794Z,932
2017-05-14T04:17:05.217Z,980
2017-05-14T04:17:45.707Z,1040
2017-05-14T04:18:26.193Z,1100
2017-05-14T04:19:06.664Z,1160
2017-05-14T04:19:47.151Z,1236
2017-05-14T04:20:27.616Z,1276
2017-05-14T04:21:08.100Z,1284
2017-05-14T04:21:48.602Z,1272
2017-05-14T04:22:29.104Z,1292
2017-05-14T04:23:09.574Z,1324
2017-05-14T04:23:50.047Z,1328
2017-05-14T04:24:30.541Z,1376
2017-05-14T04:25:11.011Z,1456
2017-05-14T04:25:51.529Z,1560
2017-05-14T04:26:32.004Z,1616
2017-05-14T04:27:12.540Z,1684
2017-05-14T04:27:52.999Z,1668
2017-05-14T04:28:33.485Z,1676
2017-05-14T04:29:13.954Z,1600
2017-05-14T04:29:54.430Z,1472
2017-05-14T04:30:34.893Z,1336
2017-05-14T04:31:15.390Z,1288
2017-05-14T04:31:55.851Z,1296
2017-05-14T04:32:36.472Z,1284
2017-05-14T04:33:16.938Z,1292
2017-05-14T04:33:57.381Z,1300
2017-05-14T04:34:37.884Z,1292
2017-05-14T04:35:18.362Z,1356
2017-05-14T04:35:58.822Z,1484
2017-05-14T04:36:39.307Z,1576
2017-05-14T04:37:19.779Z,1640
2017-05-14T04:38:00.250Z,1640
2017-05-14T04:38:40.802Z,1568
2017-05-14T04:39:21.255Z,1552
2017-05-14T04:40:01.701Z,1584
2017-05-14T04:40:42.184Z,1636
2017-05-14T04:41:22.676Z,1652
2017-05-14T04:42:03.096Z,1712
2017-05-14T04:42:43.557Z,1840
2017-05-14T04:43:24.035Z,2004
2017-05-14T04:44:04.512Z,2176
2017-05-14T04:44:44.959Z,2468
2017-05-14T04:45:25.484Z,2820
2017-05-14T04:46:05.982Z,3188
2017-05-14T04:46:46.453Z,3360
2017-05-14T04:47:26.927Z,3460
2017-05-14T04:48:07.399Z,3600
2017-05-14T04:48:47.849Z,3716
2017-05-14T04:49:28.356Z,3692
2017-05-14T04:50:08.790Z,3580
2017-05-14T04:50:49.295Z,3260
2017-05-14T04:51:29.807Z,2700
2017-05-14T04:52:10.294Z,2208
2017-05-14T04:52:50.758Z,1944
2017-05-14T04:53:31.253Z,1836
2017-05-14T04:54:11.725Z,1720
2017-05-14T04:54:52.194Z,1612
2017-05-14T04:55:32.711Z,1540
2017-05-14T04:56:13.254Z,1508
2017-05-14T04:56:53.765Z,1456
2017-05-14T04:57:34.247Z,1452
2017-05-14T04:58:14.686Z,1540
2017-05-14T04:58:55.165Z,1684
2017-05-14T04:59:35.650Z,1868
2017-05-14T05:00:16.123Z,2196
2017-05-14T05:00:56.615Z,2596
2017-05-14T05:01:37.060Z,2728
2017-05-14T05:02:17.552Z,2368
2017-05-14T05:02:58.017Z,1792
2017-05-14T05:03:38.475Z,1324
2017-05-14T05:04:18.965Z,1008
2017-05-14T05:04:59.479Z,824
2017-05-14T05:05:39.964Z,788
2017-05-14T05:06:20.443Z,920
2017-05-14T05:07:00.941Z,1176
2017-05-14T05:07:41.407Z,1448
2017-05-14T05:08:21.898Z,1592
2017-05-14T05:09:02.472Z,1752
2017-05-14T05:09:42.972Z,1716
2017-05-14T05:10:23.467Z,1568
2017-05-14T05:11:03.931Z,1408
2017-05-14T05:11:44.381Z,1344
2017-05-14T05:12:24.907Z,1468
2017-05-14T05:13:05.401Z,1600
2017-05-14T05:13:45.880Z,1752
2017-05-14T05:14:26.346Z,1904
2017-05-14T05:15:06.808Z,2028
2017-05-14T05:15:47.293Z,1948
2017-05-14T05:16:27.814Z,1688
2017-05-14T05:17:08.285Z,1468
2017-05-14T05:17:48.780Z,1504
2017-05-14T05:18:29.247Z,1536
2017-05-14T05:19:09.753Z,1636
2017-05-14T05:19:50.261Z,1848
2017-05-14T05:20:30.740Z,2044
2017-05-14T05:21:11.265Z,2052
2017-05-14T05:21:51.724Z,2076
2017-05-14T05:22:32.265Z,2240
2017-05-14T05:23:12.687Z,2492
2017-05-14T05:23:53.231Z,2744
2017-05-14T05:24:33.677Z,2820
2017-05-14T05:25:14.159Z,2572
2017-05-14T05:25:54.661Z,2352
2017-05-14T05:26:35.135Z,2352
2017-05-14T05:27:15.633Z,2352
2017-05-14T05:27:56.085Z,2440
2017-05-14T05:28:36.596Z,2752
2017-05-14T05:29:17.054Z,3180
2017-05-14T05:29:57.562Z,3808
2017-05-14T05:30:38.036Z,4164
2017-05-14T05:31:18.550Z,4176
2017-05-14T05:31:59.034Z,3728
2017-05-14T05:32:39.529Z,3764
2017-05-14T05:33:20.029Z,4172
2017-05-14T05:34:00.491Z,4340
2017-05-14T05:34:40.924Z,4576
2017-05-14T05:35:21.511Z,4528
2017-05-14T05:36:01.961Z,3764
2017-05-14T05:36:42.451Z,3480
2017-05-14T05:37:22.911Z,3088
2017-05-14T05:38:03.414Z,2976
2017-05-14T05:38:43.904Z,2892
2017-05-14T05:39:24.388Z,2964
2017-05-14T05:40:04.826Z,3028
2017-05-14T05:40:45.310Z,3012
2017-05-14T05:41:25.810Z,2996
2017-05-14T05:42:07.797Z,3076
2017-05-14T05:42:48.320Z,3116
2017-05-14T05:43:28.784Z,3160
2017-05-14T05:44:09.316Z,3212
2017-05-14T05:44:49.787Z,3248
2017-05-14T05:45:30.268Z,3228
2017-05-14T05:46:10.714Z,3172
2017-05-14T05:46:51.231Z,3160
2017-05-14T05:47:31.682Z,3152
2017-05-14T05:48:12.169Z,3148
2017-05-14T05:48:52.643Z,3164
2017-05-14T05:49:33.127Z,3168
2017-05-14T05:50:13.585Z,3196
2017-05-14T05:50:54.021Z,3204
2017-05-14T05:51:34.532Z,3212
2017-05-14T05:52:15.010Z,3240
2017-05-14T05:52:55.507Z,3272
2017-05-14T05:53:36.011Z,3308
2017-05-14T05:54:16.482Z,3352
2017-05-14T05:54:56.957Z,3404
2017-05-14T05:55:37.418Z,3456
2017-05-14T05:56:17.917Z,3492
2017-05-14T05:56:58.400Z,3520
2017-05-14T05:57:38.911Z,3520
2017-05-14T05:58:19.364Z,3520
2017-05-14T05:58:59.864Z,3492
2017-05-14T05:59:40.388Z,3476
2017-05-14T06:00:20.807Z,3452
2017-05-14T06:01:01.295Z,3404
2017-05-14T06:01:41.819Z,3324
2017-05-14T06:02:22.271Z,3240
2017-05-14T06:03:02.753Z,3192
2017-05-14T06:03:43.263Z,3148
2017-05-14T06:04:23.745Z,3128
2017-05-14T06:05:04.211Z,3108
2017-05-14T06:05:44.706Z,3100
2017-05-14T06:06:25.185Z,3096
2017-05-14T06:07:05.695Z,3088
2017-05-14T06:07:46.177Z,3104
2017-05-14T06:08:26.696Z,3120
2017-05-14T06:09:07.163Z,3144
2017-05-14T06:09:47.668Z,3164
2017-05-14T06:10:28.142Z,3156
2017-05-14T06:11:08.606Z,3152
2017-05-14T06:11:49.113Z,3144
2017-05-14T06:12:29.572Z,3164
2017-05-14T06:13:10.048Z,3168
2017-05-14T06:13:50.510Z,3172
2017-05-14T06:14:31.051Z,3172
2017-05-14T06:15:11.477Z,3180
2017-05-14T06:15:51.948Z,3180
2017-05-14T06:16:32.450Z,3180
2017-05-14T06:17:12.903Z,3176
2017-05-14T06:17:53.421Z,3184
2017-05-14T06:18:33.878Z,3180
2017-05-14T06:19:14.411Z,3176
2017-05-14T06:19:54.855Z,3192
2017-05-14T06:20:35.320Z,3192
2017-05-14T06:21:15.882Z,3192
2017-05-14T06:21:56.441Z,3188
2017-05-14T06:22:36.910Z,3192
2017-05-14T06:23:17.393Z,3208
2017-05-14T06:23:57.911Z,3216
2017-05-14T06:24:38.377Z,3208
2017-05-14T06:25:18.864Z,3216
2017-05-14T06:25:59.347Z,3224
2017-05-14T06:26:39.824Z,3232
2017-05-14T06:27:20.307Z,3244
2017-05-14T06:28:00.842Z,3244
2017-05-14T06:28:41.272Z,3252
2017-05-14T06:29:21.752Z,3236
2017-05-14T06:30:02.257Z,3232
2017-05-14T06:30:42.724Z,3228
2017-05-14T06:31:23.246Z,3236
2017-05-14T06:32:03.761Z,3236
2017-05-14T06:32:44.185Z,3232
2017-05-14T06:33:24.716Z,3224
2017-05-14T06:34:05.193Z,3224
2017-05-14T06:34:45.698Z,3224
2017-05-14T06:35:26.155Z,3228
2017-05-14T06:36:06.697Z,3228
2017-05-14T06:36:47.163Z,3240
2017-05-14T06:37:27.675Z,3224
2017-05-14T06:38:08.165Z,3224
2017-05-14T06:38:48.628Z,3232
2017-05-14T06:39:29.099Z,3228
2017-05-14T06:40:09.649Z,3220
2017-05-14T06:40:50.101Z,3216
2017-05-14T06:41:30.625Z,3220
2017-05-14T06:42:11.032Z,3216
2017-05-14T06:42:51.583Z,3220
2017-05-14T06:43:32.091Z,3228
2017-05-14T06:44:12.521Z,3236
2017-05-14T06:44:53.001Z,3232
2017-05-14T06:45:33.492Z,3228
2017-05-14T06:46:13.994Z,3212
2017-05-14T06:46:54.499Z,3208
2017-05-14T06:47:34.924Z,3224
2017-05-14T06:48:15.410Z,3216
2017-05-14T06:48:55.892Z,3212
2017-05-14T06:49:36.401Z,3212
2017-05-14T06:50:16.858Z,3228
2017-05-14T06:50:57.472Z,3208
2017-05-14T06:51:37.965Z,3204
2017-05-14T06:52:18.421Z,3208
2017-05-14T06:52:58.932Z,3200
2017-05-14T06:53:39.485Z,3196
2017-05-14T06:54:19.937Z,3200
2017-05-14T06:55:00.415Z,3208
2017-05-14T06:55:40.878Z,3228
2017-05-14T06:56:21.359Z,3236
2017-05-14T06:57:01.847Z,3244
2017-05-14T06:57:42.350Z,3256
2017-05-14T06:58:22.819Z,3268
2017-05-14T06:59:03.347Z,3264
2017-05-14T06:59:43.861Z,3280
2017-05-14T07:00:24.344Z,3300
2017-05-14T07:01:04.849Z,3288
2017-05-14T07:01:45.336Z,3288
2017-05-14T07:02:25.782Z,3240
2017-05-14T07:03:06.335Z,3224
2017-05-14T07:03:46.757Z,3200
2017-05-14T07:04:27.231Z,3188
2017-05-14T07:05:07.706Z,3196
2017-05-14T07:05:48.210Z,3200
2017-05-14T07:06:28.697Z,3224
2017-05-14T07:07:09.183Z,3232
2017-05-14T07:07:49.678Z,3240
2017-05-14T07:08:30.138Z,3236
2017-05-14T07:09:10.607Z,3248
2017-05-14T07:09:51.097Z,3236
2017-05-14T07:10:31.566Z,3248
2017-05-14T07:11:12.082Z,3248
2017-05-14T07:11:52.547Z,3252
2017-05-14T07:12:33.000Z,3268
2017-05-14T07:13:13.487Z,3252
2017-05-14T07:13:53.944Z,3248
2017-05-14T07:14:34.459Z,3244
2017-05-14T07:15:14.930Z,3256
2017-05-14T07:15:55.427Z,3256
2017-05-14T07:16:35.936Z,3264
2017-05-14T07:17:16.423Z,3272
2017-05-14T07:17:56.943Z,3280
2017-05-14T07:18:37.403Z,3292
2017-05-14T07:19:17.856Z,3292
2017-05-14T07:19:58.344Z,3284
2017-05-14T07:20:38.847Z,3272
2017-05-14T07:21:19.319Z,3268
2017-05-14T07:21:59.833Z,3288
2017-05-14T07:22:40.369Z,3284
2017-05-14T07:23:20.839Z,3272
2017-05-14T07:24:01.319Z,3268
2017-05-14T07:24:41.827Z,3244
2017-05-14T07:25:22.297Z,3240
2017-05-14T07:26:02.805Z,3248
2017-05-14T07:26:43.266Z,3260
2017-05-14T07:27:23.750Z,3260
2017-05-14T07:28:04.214Z,3252
2017-05-14T07:28:44.691Z,3256
2017-05-14T07:29:25.139Z,3260
2017-05-14T07:30:05.616Z,3280
2017-05-14T07:30:46.116Z,3280
2017-05-14T07:31:26.623Z,3276
2017-05-14T07:32:07.100Z,3268
2017-05-14T07:32:47.566Z,3268
2017-05-14T07:33:28.077Z,3280
2017-05-14T07:34:08.586Z,3284
2017-05-14T07:34:49.076Z,3292
2017-05-14T07:35:29.639Z,3292
2017-05-14T07:36:10.082Z,3292
2017-05-14T07:36:50.531Z,3296
2017-05-14T07:37:31.028Z,3320
2017-05-14T07:38:11.509Z,3340
2017-05-14T07:38:52.046Z,3352
2017-05-14T07:39:32.508Z,3344
2017-05-14T07:40:13.012Z,3336
2017-05-14T07:40:53.487Z,3352
2017-05-14T07:41:33.930Z,3352
2017-05-14T07:42:14.456Z,3348
2017-05-14T07:42:54.917Z,3332
2017-05-14T07:43:35.440Z,3344
2017-05-14T07:44:15.926Z,3336
2017-05-14T07:44:56.490Z,3324
2017-05-14T07:45:37.023Z,3320
2017-05-14T07:46:17.485Z,3328
2017-05-14T07:46:57.953Z,3340
2017-05-14T07:47:38.432Z,3328
2017-05-14T07:48:18.915Z,3328
2017-05-14T07:48:59.331Z,3336
2017-05-14T07:49:39.812Z,3344
2017-05-14T07:50:20.285Z,3336
2017-05-14T07:51:00.804Z,3324
2017-05-14T07:51:41.317Z,3332
2017-05-14T07:52:21.789Z,3352
2017-05-14T07:53:02.248Z,3340
2017-05-14T07:53:42.766Z,3336
2017-05-14T07:54:23.233Z,3332
2017-05-14T07:55:03.686Z,3332
2017-05-14T07:55:44.184Z,3336
2017-05-14T07:56:24.733Z,3336
2017-05-14T07:57:05.244Z,3328
2017-05-14T07:57:45.746Z,3344
2017-05-14T07:58:26.232Z,3348
2017-05-14T07:59:06.703Z,3340
2017-05-14T07:59:47.195Z,3324
2017-05-14T08:00:27.724Z,3344
2017-05-14T08:01:08.222Z,3372
2017-05-14T08:01:48.671Z,3376
2017-05-14T08:02:29.154Z,3384
2017-05-14T08:03:09.624Z,3380
2017-05-14T08:03:50.144Z,3368
2017-05-14T08:04:30.625Z,3364
2017-05-14T08:05:11.120Z,3360
2017-05-14T08:05:51.573Z,3380
2017-05-14T08:06:32.054Z,3380
2017-05-14T08:07:12.571Z,3384
2017-05-14T08:07:53.014Z,3388
2017-05-14T08:08:33.483Z,3380
2017-05-14T08:09:13.965Z,3384
2017-05-14T08:09:54.458Z,3404
2017-05-14T08:10:34.923Z,3412
2017-05-14T08:11:15.389Z,3408
2017-05-14T08:11:55.932Z,3416
2017-05-14T08:12:36.447Z,3428
2017-05-14T08:13:16.835Z,3424
2017-05-14T08:13:57.331Z,3420
2017-05-14T08:14:37.801Z,3416
2017-05-14T08:15:18.317Z,3416
2017-05-14T08:15:58.802Z,3436
2017-05-14T08:16:39.326Z,3452
2017-05-14T08:17:19.784Z,3472
2017-05-14T08:18:00.253Z,3480
2017-05-14T08:18:40.749Z,3496
2017-05-14T08:19:21.256Z,3512
2017-05-14T08:20:01.761Z,3500
2017-05-14T08:20:42.256Z,3496
2017-05-14T08:21:22.751Z,3484
2017-05-14T08:22:03.222Z,3488
2017-05-14T08:22:43.727Z,3504
2017-05-14T08:23:24.208Z,3508
2017-05-14T08:24:04.685Z,3512
2017-05-14T08:24:45.192Z,3528
2017-05-14T08:25:25.623Z,3552
2017-05-14T08:26:06.093Z,3580
2017-05-14T08:26:46.593Z,3596
2017-05-14T08:27:27.061Z,3616
2017-05-14T08:28:07.569Z,3636
2017-05-14T08:28:48.048Z,3656
2017-05-14T08:29:28.530Z,3692
2017-05-14T08:30:09.079Z,3712
2017-05-14T08:30:49.543Z,3716
2017-05-14T08:31:30.059Z,3728
2017-05-14T08:32:10.545Z,3692
2017-05-14T08:32:51.023Z,3704
2017-05-14T08:33:31.517Z,3752
2017-05-14T08:34:11.981Z,3780
2017-05-14T08:34:52.513Z,3784
2017-05-14T08:35:33.065Z,3804
2017-05-14T08:36:13.497Z,3820
2017-05-14T08:36:53.976Z,3816
2017-05-14T08:37:34.463Z,3856
2017-05-14T08:38:14.944Z,3872
2017-05-14T08:38:55.411Z,3876
2017-05-14T08:39:35.946Z,3892
2017-05-14T08:40:16.428Z,3928
2017-05-14T08:40:56.906Z,3944
2017-05-14T08:41:37.397Z,3932
2017-05-14T08:42:17.881Z,3960
2017-05-14T08:42:58.428Z,3996
2017-05-14T08:43:38.890Z,4032
2017-05-14T08:44:19.382Z,4036
2017-05-14T08:44:59.893Z,4036
2017-05-14T08:45:40.399Z,4044
2017-05-14T08:46:20.881Z,4048
2017-05-14T08:47:01.338Z,4088
2017-05-14T08:47:41.867Z,4128
2017-05-14T08:48:22.389Z,4116
2017-05-14T08:49:02.865Z,4120
2017-05-14T08:49:43.370Z,4104
2017-05-14T08:50:23.848Z,4124
2017-05-14T08:51:04.360Z,4120
2017-05-14T08:51:44.832Z,4144
2017-05-14T08:52:25.303Z,4164
2017-05-14T08:53:05.788Z,4188
2017-05-14T08:53:46.321Z,4184
2017-05-14T08:54:26.885Z,4204
2017-05-14T08:55:07.380Z,4192
2017-05-14T08:55:47.875Z,4172
2017-05-14T08:56:28.350Z,4144
2017-05-14T08:57:08.874Z,4180
2017-05-14T08:57:49.362Z,4224
2017-05-14T08:58:29.887Z,4220
2017-05-14T08:59:10.333Z,4204
2017-05-14T08:59:50.820Z,4224
2017-05-14T09:00:31.313Z,4220
2017-05-14T09:01:11.885Z,4224
2017-05-14T09:01:52.372Z,4192
2017-05-14T09:02:32.887Z,4196
2017-05-14T09:03:13.361Z,4208
2017-05-14T09:03:53.845Z,4200
2017-05-14T09:04:34.353Z,4220
2017-05-14T09:05:14.828Z,4212
2017-05-14T09:05:55.303Z,4212
2017-05-14T09:06:35.806Z,4228
2017-05-14T09:07:16.282Z,4236
2017-05-14T09:07:56.802Z,4244
2017-05-14T09:08:37.255Z,4264
2017-05-14T09:09:17.772Z,4232
2017-05-14T09:09:58.271Z,4200
2017-05-14T09:10:38.774Z,4176
2017-05-14T09:11:19.289Z,4188
2017-05-14T09:11:59.768Z,4220
2017-05-14T09:12:40.223Z,4228
2017-05-14T09:13:20.712Z,4200
2017-05-14T09:14:01.183Z,4196
2017-05-14T09:14:41.676Z,4204
2017-05-14T09:15:22.182Z,4188
2017-05-14T09:16:02.663Z,4204
2017-05-14T09:16:43.227Z,4240
2017-05-14T09:17:23.698Z,4276
2017-05-14T09:18:04.172Z,4332
2017-05-14T09:18:44.684Z,4308
2017-05-14T09:19:25.163Z,4324
2017-05-14T09:20:05.648Z,4372
2017-05-14T09:20:46.168Z,4364